createdAt,value
2023-02-04T00:00:55.490Z,5.80
2023-02-04T00:03:22.733Z,5.80
2023-02-04T00:05:50.029Z,5.80
2023-02-04T00:08:19.693Z,5.80
2023-02-04T00:10:49.563Z,5.70
2023-02-04T00:13:20.476Z,5.60
2023-02-04T00:15:47.953Z,5.60
2023-02-04T00:18:16.296Z,5.60
2023-02-04T00:20:43.599Z,5.50
2023-02-04T00:23:10.824Z,5.40
2023-02-04T00:25:38.004Z,5.50
2023-02-04T00:28:06.542Z,5.50
2023-02-04T00:30:33.860Z,5.60
2023-02-04T00:33:03.375Z,5.60
2023-02-04T00:35:30.575Z,5.60
2023-02-04T00:38:06.144Z,5.60
2023-02-04T00:40:34.891Z,5.60
2023-02-04T00:43:03.070Z,5.60
2023-02-04T00:45:37.712Z,5.50
2023-02-04T00:48:04.947Z,5.50
2023-02-04T00:50:32.465Z,5.40
2023-02-04T00:53:07.015Z,5.30
2023-02-04T00:55:34.407Z,5.30
2023-02-04T00:58:02.012Z,5.30
2023-02-04T01:00:32.369Z,5.20
2023-02-04T01:02:59.793Z,5.20
2023-02-04T01:05:27.041Z,5.20
2023-02-04T01:07:55.689Z,5.20
2023-02-04T01:10:22.913Z,5.20
2023-02-04T01:12:51.041Z,5.10
2023-02-04T01:15:19.514Z,5.10
2023-02-04T01:17:46.922Z,5.10
2023-02-04T01:20:14.031Z,5.10
2023-02-04T01:22:41.268Z,5.10
2023-02-04T01:25:08.641Z,5.00
2023-02-04T01:27:35.698Z,5.00
2023-02-04T01:30:16.872Z,5.00
2023-02-04T01:32:44.158Z,4.90
2023-02-04T01:35:11.503Z,4.90
2023-02-04T01:37:39.175Z,4.90
2023-02-04T01:40:07.109Z,4.90
2023-02-04T01:42:35.304Z,4.90
2023-02-04T01:45:03.087Z,4.80
2023-02-04T01:47:31.079Z,4.70
2023-02-04T01:49:58.572Z,4.70
2023-02-04T01:52:26.098Z,4.70
2023-02-04T01:54:54.108Z,4.60
2023-02-04T01:57:21.442Z,4.60
2023-02-04T01:59:49.560Z,4.60
2023-02-04T02:02:40.855Z,4.60
2023-02-04T02:05:15.067Z,4.60
2023-02-04T02:07:42.430Z,4.50
2023-02-04T02:10:11.962Z,4.50
2023-02-04T02:12:39.288Z,4.50
2023-02-04T02:15:07.388Z,4.40
2023-02-04T02:17:34.769Z,4.40
2023-02-04T02:20:02.234Z,4.30
2023-02-04T02:22:51.334Z,4.20
2023-02-04T02:25:18.825Z,4.10
2023-02-04T02:27:46.310Z,4.10
2023-02-04T02:30:17.887Z,4.00
2023-02-04T02:32:47.437Z,4.00
2023-02-04T02:35:15.643Z,4.00
2023-02-04T02:37:43.132Z,4.00
2023-02-04T02:40:11.227Z,4.00
2023-02-04T02:42:38.827Z,3.90
2023-02-04T02:45:13.260Z,3.90
2023-02-04T02:47:40.463Z,3.90
2023-02-04T02:50:13.869Z,3.90
2023-02-04T02:52:41.884Z,3.90
2023-02-04T02:55:16.532Z,3.80
2023-02-04T02:57:45.911Z,3.70
2023-02-04T03:00:19.295Z,3.60
2023-02-04T03:03:11.815Z,3.60
2023-02-04T03:05:43.124Z,3.60
2023-02-04T03:08:12.749Z,3.60
2023-02-04T03:10:47.724Z,3.60
2023-02-04T03:13:16.636Z,3.70
2023-02-04T03:15:46.966Z,3.80
2023-02-04T03:18:17.641Z,3.80
2023-02-04T03:20:45.056Z,3.80
2023-02-04T03:23:14.804Z,3.90
2023-02-04T03:25:41.977Z,4.00
2023-02-04T03:28:10.557Z,4.00
2023-02-04T03:30:38.371Z,4.10
2023-02-04T03:33:05.864Z,4.10
2023-02-04T03:35:33.175Z,4.10
2023-02-04T03:38:00.488Z,4.10
2023-02-04T03:40:29.215Z,4.10
2023-02-04T03:42:56.680Z,4.10
2023-02-04T03:45:26.998Z,4.20
2023-02-04T03:47:54.034Z,4.20
2023-02-04T03:50:21.057Z,4.30
2023-02-04T03:52:50.163Z,4.30
2023-02-04T03:55:17.464Z,4.30
2023-02-04T03:57:44.450Z,4.30
2023-02-04T04:00:12.450Z,4.30
2023-02-04T04:02:40.245Z,4.30
2023-02-04T04:05:09.132Z,4.30
2023-02-04T04:07:36.144Z,4.20
2023-02-04T04:10:03.607Z,4.20
2023-02-04T04:12:30.653Z,4.10
2023-02-04T04:14:57.683Z,4.10
2023-02-04T04:17:24.692Z,4.10
2023-02-04T04:19:51.745Z,4.10
2023-02-04T04:22:18.884Z,4.10
2023-02-04T04:24:45.971Z,4.10
2023-02-04T04:27:12.953Z,4.20
2023-02-04T04:29:39.968Z,4.20
2023-02-04T04:32:07.128Z,4.10
2023-02-04T04:34:34.150Z,4.10
2023-02-04T04:37:01.362Z,4.20
2023-02-04T04:39:28.320Z,4.10
2023-02-04T04:41:55.299Z,4.10
2023-02-04T04:44:22.610Z,4.10
2023-02-04T04:46:49.685Z,4.10
2023-02-04T04:49:16.692Z,4.10
2023-02-04T04:51:43.661Z,4.10
2023-02-04T04:54:10.611Z,4.10
2023-02-04T04:56:37.566Z,4.10
2023-02-04T04:59:04.818Z,4.10
2023-02-04T05:01:31.914Z,4.10
2023-02-04T05:03:59.158Z,4.00
2023-02-04T05:06:26.725Z,4.00
2023-02-04T05:08:54.196Z,4.00
2023-02-04T05:11:21.787Z,4.00
2023-02-04T05:13:49.069Z,4.00
2023-02-04T05:16:17.497Z,3.90
2023-02-04T05:18:44.717Z,3.80
2023-02-04T05:21:11.739Z,3.70
2023-02-04T05:23:38.836Z,3.60
2023-02-04T05:26:06.026Z,3.50
2023-02-04T05:28:34.006Z,3.40
2023-02-04T05:31:01.058Z,3.30
2023-02-04T05:33:28.096Z,3.20
2023-02-04T05:35:55.043Z,3.20
2023-02-04T05:38:22.118Z,3.20
2023-02-04T05:40:49.190Z,3.20
2023-02-04T05:43:16.433Z,3.10
2023-02-04T05:45:43.546Z,3.10
2023-02-04T05:48:10.679Z,3.00
2023-02-04T05:50:37.686Z,3.00
2023-02-04T05:53:04.637Z,3.00
2023-02-04T05:55:31.770Z,3.00
2023-02-04T05:57:58.742Z,3.00
2023-02-04T06:00:26.801Z,2.90
2023-02-04T06:02:53.835Z,2.90
2023-02-04T06:05:21.110Z,2.80
2023-02-04T06:07:49.537Z,2.90
2023-02-04T06:10:16.999Z,2.90
2023-02-04T06:12:45.060Z,2.90
2023-02-04T06:15:13.118Z,2.90
2023-02-04T06:17:40.932Z,2.90
2023-02-04T06:20:09.036Z,3.00
2023-02-04T06:22:35.967Z,3.00
2023-02-04T06:25:03.074Z,3.10
2023-02-04T06:27:30.013Z,3.10
2023-02-04T06:29:57.538Z,3.20
2023-02-04T06:32:25.386Z,3.20
2023-02-04T06:34:52.744Z,3.30
2023-02-04T06:37:24.222Z,3.30
2023-02-04T06:39:55.358Z,3.30
2023-02-04T06:42:25.634Z,3.30
2023-02-04T06:44:53.777Z,3.30
2023-02-04T06:47:22.309Z,3.20
2023-02-04T06:49:52.975Z,3.20
2023-02-04T06:52:23.785Z,3.20
2023-02-04T06:54:52.103Z,3.10
2023-02-04T06:57:43.176Z,3.10
2023-02-04T07:07:34.512Z,3.10
2023-02-04T07:13:31.842Z,3.10
2023-02-04T07:44:38.009Z,3.80
2023-02-04T07:47:05.430Z,3.90
2023-02-04T07:49:32.844Z,4.00
2023-02-04T07:52:00.818Z,4.10
2023-02-04T07:54:42.952Z,4.20
2023-02-04T07:57:10.035Z,4.40
2023-02-04T07:59:38.743Z,4.50
2023-02-04T08:02:07.341Z,4.70
2023-02-04T08:04:34.370Z,4.80
2023-02-04T08:07:04.065Z,4.90
2023-02-04T08:09:31.013Z,5.00
2023-02-04T08:12:00.153Z,5.20
2023-02-04T08:14:27.124Z,5.50
2023-02-04T08:16:55.228Z,5.80
2023-02-04T08:19:22.878Z,5.70
2023-02-04T08:21:53.537Z,5.60
2023-02-04T08:24:20.763Z,5.50
2023-02-04T08:26:49.482Z,5.40
2023-02-04T08:29:17.314Z,5.40
2023-02-04T08:31:44.428Z,5.40
2023-02-04T08:34:13.010Z,5.40
2023-02-04T08:36:40.041Z,5.40
2023-02-04T08:39:07.336Z,5.40
2023-02-04T08:41:35.055Z,5.40
2023-02-04T08:44:05.576Z,5.30
2023-02-04T08:46:33.986Z,5.30
2023-02-04T08:49:04.625Z,5.30
2023-02-04T08:51:32.820Z,5.30
2023-02-04T08:54:04.074Z,5.30
2023-02-04T08:56:37.911Z,5.30
2023-02-04T08:59:06.110Z,5.20
2023-02-04T09:01:42.578Z,5.30
2023-02-04T09:04:10.153Z,5.40
2023-02-04T09:06:38.601Z,5.50
2023-02-04T09:09:10.674Z,5.50
2023-02-04T09:11:38.664Z,5.50
2023-02-04T09:14:08.978Z,5.50
2023-02-04T09:16:37.614Z,5.40
2023-02-04T09:19:04.902Z,5.40
2023-02-04T09:21:36.128Z,5.20
2023-02-04T09:24:04.452Z,4.60
2023-02-04T09:26:33.357Z,4.20
2023-02-04T09:29:14.558Z,3.90
2023-02-04T09:31:52.596Z,3.60
2023-02-04T09:34:40.133Z,3.50
2023-02-04T10:32:43.832Z,5.50
2023-02-04T10:35:18.652Z,5.30
2023-02-04T10:40:39.095Z,5.40
2023-02-04T10:43:11.771Z,5.50
2023-02-04T10:46:09.651Z,5.40
2023-02-04T10:48:42.411Z,5.40
2023-02-04T10:54:32.263Z,5.60
2023-02-04T10:57:06.792Z,5.70
2023-02-04T10:59:34.627Z,5.70
2023-02-04T11:02:16.680Z,5.90
2023-02-04T11:04:44.130Z,6.10
2023-02-04T11:07:14.509Z,5.90
2023-02-04T11:09:44.094Z,6.30
2023-02-04T11:12:40.990Z,6.50
2023-02-04T11:15:50.343Z,7.00
2023-02-04T11:18:20.792Z,7.50
2023-02-04T11:20:49.591Z,7.90
2023-02-04T11:23:32.457Z,7.90
2023-02-04T11:26:15.127Z,7.80
2023-02-04T11:29:01.467Z,7.70
2023-02-04T11:31:33.869Z,7.60
2023-02-04T11:34:10.471Z,7.50
2023-02-04T11:36:57.552Z,7.30
2023-02-04T11:39:34.781Z,7.20
2023-02-04T11:42:03.517Z,7.10
2023-02-04T11:44:32.284Z,7.00
2023-02-04T11:47:02.112Z,7.10
2023-02-04T11:49:29.876Z,7.50
2023-02-04T11:52:10.692Z,8.10
2023-02-04T11:54:37.794Z,8.80
2023-02-04T11:57:05.831Z,9.00
2023-02-04T11:59:33.102Z,9.10
2023-02-04T12:02:18.278Z,8.90
2023-02-04T12:04:58.810Z,8.40
2023-02-04T12:07:29.953Z,8.10
2023-02-04T12:10:00.496Z,7.90
2023-02-04T12:12:31.294Z,8.00
2023-02-04T12:15:22.120Z,7.90
2023-02-04T12:18:12.854Z,7.70
2023-02-04T12:20:41.068Z,7.40
2023-02-04T12:23:08.941Z,7.10
2023-02-04T12:25:39.094Z,6.80
2023-02-04T12:28:19.684Z,6.60
2023-02-04T12:30:46.749Z,6.60
2023-02-04T12:33:15.108Z,6.70
2023-02-04T12:35:42.881Z,6.80
2023-02-04T12:38:10.702Z,6.80
2023-02-04T12:40:40.246Z,6.80
2023-02-04T12:43:07.816Z,6.70
2023-02-04T12:45:35.394Z,6.50
2023-02-04T12:48:03.487Z,6.50
2023-02-04T12:50:31.878Z,6.40
2023-02-04T12:53:00.785Z,6.40
2023-02-04T12:55:30.249Z,6.50
2023-02-04T12:57:57.823Z,6.60
2023-02-04T13:00:25.261Z,6.90
2023-02-04T13:02:52.561Z,7.20
2023-02-04T13:05:20.069Z,7.30
2023-02-04T13:07:47.590Z,7.30
2023-02-04T13:10:15.968Z,7.00
2023-02-04T13:12:43.714Z,6.80
2023-02-04T13:15:11.553Z,6.70
2023-02-04T13:17:43.336Z,6.50
2023-02-04T13:20:14.912Z,6.30
2023-02-04T13:22:42.141Z,6.20
2023-02-04T13:25:11.726Z,6.20
2023-02-04T13:27:41.835Z,6.10
2023-02-04T13:30:12.457Z,6.00
2023-02-04T13:32:39.907Z,6.00
2023-02-04T13:35:07.504Z,6.00
2023-02-04T13:37:34.518Z,6.00
2023-02-04T13:40:01.613Z,6.00
2023-02-04T13:42:28.838Z,6.00
2023-02-04T13:44:55.970Z,6.10
2023-02-04T13:47:22.987Z,6.30
2023-02-04T13:49:49.970Z,6.40
2023-02-04T13:52:18.601Z,6.30
2023-02-04T13:54:46.430Z,6.30
2023-02-04T13:57:14.212Z,6.30
2023-02-04T13:59:41.577Z,6.20
2023-02-04T14:02:12.942Z,6.10
2023-02-04T14:04:40.250Z,6.00
2023-02-04T14:07:07.205Z,5.90
2023-02-04T14:09:34.523Z,5.80
2023-02-04T14:12:01.566Z,5.80
2023-02-04T14:14:28.654Z,5.80
2023-02-04T14:16:56.536Z,5.80
2023-02-04T14:19:27.674Z,5.70
2023-02-04T14:21:59.316Z,5.60
2023-02-04T14:24:26.922Z,5.50
2023-02-04T14:26:56.277Z,5.50
2023-02-04T14:29:24.219Z,5.60
2023-02-04T14:31:52.579Z,5.60
2023-02-04T14:34:19.863Z,5.60
2023-02-04T14:36:47.466Z,5.50
2023-02-04T14:39:17.565Z,5.40
2023-02-04T14:41:46.741Z,5.40
2023-02-04T14:44:20.345Z,5.40
2023-02-04T14:54:16.898Z,5.10
2023-02-04T14:56:50.569Z,5.00
2023-02-04T14:59:22.989Z,5.00
2023-02-04T15:01:50.151Z,5.00
2023-02-04T15:04:34.148Z,5.00
2023-02-04T15:07:03.778Z,4.90
2023-02-04T15:09:31.301Z,4.90
2023-02-04T15:11:59.103Z,4.80
2023-02-04T15:14:26.271Z,4.80
2023-02-04T15:16:53.673Z,4.60
2023-02-04T15:19:24.273Z,4.60
2023-02-04T15:21:52.205Z,4.60
2023-02-04T15:24:19.804Z,4.60
2023-02-04T15:26:48.680Z,4.50
2023-02-04T15:29:23.297Z,4.60
2023-02-04T15:32:01.910Z,4.50
2023-02-04T15:34:28.952Z,4.50
2023-02-04T15:36:58.864Z,4.50
2023-02-04T15:39:28.230Z,4.50
2023-02-04T15:41:55.292Z,4.40
2023-02-04T15:44:23.657Z,4.40
2023-02-04T15:46:51.975Z,4.30
2023-02-04T15:49:19.871Z,4.30
2023-02-04T15:51:49.347Z,4.20
2023-02-04T15:54:17.751Z,4.20
2023-02-04T15:56:47.943Z,4.10
2023-02-04T15:59:16.376Z,4.10
2023-02-04T16:04:29.071Z,4.00
2023-02-04T16:06:58.954Z,4.00
2023-02-04T16:09:26.599Z,3.90
2023-02-04T16:11:53.564Z,3.90
2023-02-04T16:14:20.520Z,3.90
2023-02-04T16:16:47.538Z,3.80
2023-02-04T16:19:14.511Z,3.70
2023-02-04T16:21:42.534Z,3.70
2023-02-04T16:24:09.594Z,3.70
2023-02-04T16:26:36.531Z,3.60
2023-02-04T16:29:06.595Z,3.60
2023-02-04T16:31:33.642Z,3.70
2023-02-04T16:34:01.227Z,3.70
2023-02-04T16:36:28.774Z,3.70
2023-02-04T16:38:56.063Z,3.70
2023-02-04T16:41:22.963Z,3.70
2023-02-04T16:43:51.260Z,3.70
2023-02-04T16:46:19.138Z,3.70
2023-02-04T16:48:46.966Z,3.60
2023-02-04T16:51:14.828Z,3.60
2023-02-04T16:53:42.295Z,3.60
2023-02-04T16:56:09.244Z,3.60
2023-02-04T16:58:37.008Z,3.60
2023-02-04T17:01:06.761Z,3.50
2023-02-04T17:03:34.702Z,3.50
2023-02-04T17:06:02.569Z,3.50
2023-02-04T17:08:29.737Z,3.50
2023-02-04T17:11:15.482Z,3.40
2023-02-04T17:13:42.519Z,3.20
2023-02-04T17:16:10.094Z,3.00
2023-02-04T17:18:37.201Z,2.90
2023-02-04T17:21:04.438Z,2.80
2023-02-04T17:23:31.617Z,2.60
2023-02-04T17:25:58.683Z,2.40
2023-02-04T17:28:26.286Z,2.20
2023-02-04T17:30:55.962Z,2.20
2023-02-04T17:33:23.161Z,2.20
2023-02-04T17:35:50.551Z,2.20
2023-02-04T17:38:17.521Z,2.10
2023-02-04T17:40:44.571Z,1.90
2023-02-04T17:43:11.607Z,1.80
2023-02-04T17:45:38.637Z,1.70
2023-02-04T17:48:05.724Z,1.50
2023-02-04T17:53:10.044Z,1.30
2023-02-04T17:55:38.260Z,1.20
2023-02-04T17:58:14.724Z,1.10
2023-02-04T18:00:44.643Z,1.10
2023-02-04T18:03:16.824Z,1.10
2023-02-04T18:05:46.273Z,1.10
2023-02-04T18:08:16.098Z,1.10
2023-02-04T18:10:48.474Z,1.10
2023-02-04T18:13:17.578Z,1.10
2023-02-04T18:15:47.812Z,1.00
2023-02-04T18:18:27.335Z,1.10
2023-02-04T18:21:31.179Z,1.00
2023-02-04T18:24:24.243Z,1.10
2023-02-04T18:26:53.950Z,1.00
2023-02-04T18:29:34.579Z,1.00
2023-02-04T18:32:18.741Z,0.90
2023-02-04T18:35:00.691Z,0.90
2023-02-04T18:37:45.593Z,0.90
2023-02-04T18:40:33.955Z,0.70
2023-02-04T18:45:14.091Z,0.70
2023-02-04T18:47:26.903Z,0.60
2023-02-04T18:57:13.771Z,0.60
2023-02-04T18:59:46.555Z,0.50
2023-02-04T19:02:46.548Z,0.30
2023-02-04T19:08:47.256Z,0.20
2023-02-04T19:11:53.526Z,0.10
2023-02-04T19:14:33.043Z,0.10
2023-02-04T19:17:18.066Z,0.00
2023-02-04T19:19:59.417Z,-0.10
2023-02-04T19:22:42.381Z,-0.10
2023-02-04T19:25:30.645Z,-0.20
2023-02-04T19:28:03.216Z,-0.20
2023-02-04T19:30:31.336Z,-0.30
2023-02-04T19:33:23.451Z,-0.30
2023-02-04T19:35:51.349Z,-0.30
2023-02-04T19:38:40.973Z,-0.40
2023-02-04T19:41:34.048Z,-0.40
2023-02-04T19:44:48.167Z,-0.40
2023-02-04T19:47:38.540Z,-0.30
2023-02-04T19:50:20.945Z,-0.20
2023-02-04T19:52:55.694Z,-0.20
2023-02-04T19:55:33.176Z,-0.20
2023-02-04T19:58:14.708Z,-0.20
2023-02-04T20:00:46.983Z,-0.20
2023-02-04T20:03:17.353Z,-0.10
2023-02-04T20:05:44.344Z,-0.10
2023-02-04T20:08:30.344Z,-0.10
2023-02-04T20:11:17.896Z,0.00
2023-02-04T20:13:45.124Z,0.00
2023-02-04T20:16:40.321Z,0.00
2023-02-04T20:19:20.010Z,0.00
2023-02-04T20:22:22.325Z,0.00
2023-02-04T20:24:59.085Z,0.10
2023-02-04T20:27:36.966Z,0.00
2023-02-04T20:30:11.962Z,-0.10
2023-02-04T20:32:53.990Z,-0.20
2023-02-04T20:35:21.147Z,-0.40
2023-02-04T20:38:02.994Z,-0.50
2023-02-04T20:40:36.792Z,-0.60
2023-02-04T20:43:12.540Z,-0.70
2023-02-04T20:45:54.776Z,-0.70
2023-02-04T20:48:39.440Z,-0.80
2023-02-04T20:51:23.340Z,-0.80
2023-02-04T20:54:20.562Z,-0.90
2023-02-04T20:56:51.297Z,-0.90
2023-02-04T20:59:29.316Z,-0.90
2023-02-04T21:01:56.968Z,-0.90
2023-02-04T21:04:34.137Z,-1.00
2023-02-04T21:07:14.380Z,-0.90
2023-02-04T21:09:41.587Z,-1.00
2023-02-04T21:12:10.253Z,-1.00
2023-02-04T21:14:37.425Z,-1.00
2023-02-04T21:17:05.356Z,-0.90
2023-02-04T21:19:34.041Z,-1.00
2023-02-04T21:22:01.907Z,-1.10
2023-02-04T21:24:31.672Z,-1.20
2023-02-04T21:26:59.255Z,-1.30
2023-02-04T21:29:26.522Z,-1.30
2023-02-04T21:31:54.837Z,-1.40
2023-02-04T21:34:22.155Z,-1.30
2023-02-04T21:36:49.604Z,-1.40
2023-02-04T21:39:16.878Z,-1.30
2023-02-04T21:41:43.929Z,-1.30
2023-02-04T21:44:11.013Z,-1.30
2023-02-04T21:46:38.137Z,-1.40
2023-02-04T21:49:05.588Z,-1.40
2023-02-04T21:51:32.702Z,-1.50
2023-02-04T21:54:03.611Z,-1.50
2023-02-04T21:56:31.130Z,-1.40
2023-02-04T21:58:58.315Z,-1.50
2023-02-04T22:01:25.703Z,-1.50
2023-02-04T22:03:53.191Z,-1.40
2023-02-04T22:06:20.337Z,-1.50
2023-02-04T22:08:47.492Z,-1.40
2023-02-04T22:11:14.786Z,-1.40
2023-02-04T22:13:42.118Z,-1.40
2023-02-04T22:16:10.072Z,-1.40
2023-02-04T22:18:37.379Z,-1.50
2023-02-04T22:21:05.076Z,-1.60
2023-02-04T22:23:32.569Z,-1.70
2023-02-04T22:25:59.592Z,-1.70
2023-02-04T22:28:26.599Z,-1.70
2023-02-04T22:30:54.340Z,-1.70
2023-02-04T22:33:21.464Z,-1.80
2023-02-04T22:35:48.671Z,-1.80
2023-02-04T22:38:15.989Z,-1.80
2023-02-04T22:40:43.173Z,-1.90
2023-02-04T22:43:10.276Z,-1.90
2023-02-04T22:45:37.405Z,-1.90
2023-02-04T22:48:04.426Z,-1.90
2023-02-04T22:50:31.653Z,-1.90
2023-02-04T22:52:58.667Z,-1.90
2023-02-04T22:55:25.972Z,-1.90
2023-02-04T22:57:52.956Z,-2.00
2023-02-04T23:00:20.186Z,-2.10
2023-02-04T23:02:47.162Z,-2.00
2023-02-04T23:05:14.197Z,-2.00
2023-02-04T23:07:41.221Z,-2.00
2023-02-04T23:10:08.792Z,-2.10
2023-02-04T23:12:35.777Z,-2.10
2023-02-04T23:15:02.982Z,-2.20
2023-02-04T23:17:30.105Z,-2.20
2023-02-04T23:19:57.251Z,-2.30
2023-02-04T23:22:24.702Z,-2.30
2023-02-04T23:24:51.887Z,-2.30
2023-02-04T23:27:19.107Z,-2.20
2023-02-04T23:29:46.188Z,-2.20
2023-02-04T23:32:13.271Z,-2.30
2023-02-04T23:34:40.329Z,-2.30
2023-02-04T23:37:07.390Z,-2.30
2023-02-04T23:39:34.535Z,-2.40
2023-02-04T23:42:01.923Z,-2.40
2023-02-04T23:44:29.081Z,-2.40
2023-02-04T23:46:56.228Z,-2.40
2023-02-04T23:49:23.386Z,-2.40
2023-02-04T23:51:50.436Z,-2.50
2023-02-04T23:54:17.592Z,-2.40
2023-02-04T23:56:44.644Z,-2.40
2023-02-04T23:59:11.796Z,-2.40
